sensor_id;sensor_type;location;lat;lon;timestamp;pressure;altitude;pressure_sealevel;temperature;humidity
21960;BME280;11144;43.030;25.108;2024-03-08T00:01:27;99616.16;;;5.32;82.79
21960;BME280;11144;43.030;25.108;2024-03-08T00:03:01;99608.09;;;5.35;82.94
21960;BME280;11144;43.030;25.108;2024-03-08T00:04:34;99614.25;;;5.34;82.87
21960;BME280;11144;43.030;25.108;2024-03-08T00:06:10;99607.41;;;5.33;82.92
21960;BME280;11144;43.030;25.108;2024-03-08T00:07:42;99595.69;;;5.29;82.85
21960;BME280;11144;43.030;25.108;2024-03-08T00:09:16;99611.38;;;5.37;82.76
21960;BME280;11144;43.030;25.108;2024-03-08T00:10:48;99608.78;;;5.37;82.82
21960;BME280;11144;43.030;25.108;2024-03-08T00:12:22;99609.59;;;5.37;82.69
21960;BME280;11144;43.030;25.108;2024-03-08T00:13:54;99607.78;;;5.38;82.89
21960;BME280;11144;43.030;25.108;2024-03-08T00:15:27;99606.84;;;5.39;83.12
21960;BME280;11144;43.030;25.108;2024-03-08T00:17:01;99605.19;;;5.38;82.74
21960;BME280;11144;43.030;25.108;2024-03-08T00:18:35;99603.84;;;5.34;82.50
21960;BME280;11144;43.030;25.108;2024-03-08T00:20:09;99607.53;;;5.31;82.45
21960;BME280;11144;43.030;25.108;2024-03-08T00:21:43;99594.44;;;5.23;82.24
21960;BME280;11144;43.030;25.108;2024-03-08T00:23:16;99614.81;;;5.28;82.53
21960;BME280;11144;43.030;25.108;2024-03-08T00:24:50;99615.22;;;5.23;82.37
21960;BME280;11144;43.030;25.108;2024-03-08T00:26:23;99614.56;;;5.21;82.61
21960;BME280;11144;43.030;25.108;2024-03-08T00:27:56;99607.19;;;5.16;82.37
21960;BME280;11144;43.030;25.108;2024-03-08T00:29:29;99611.69;;;5.14;82.58
21960;BME280;11144;43.030;25.108;2024-03-08T00:31:03;99607.34;;;5.05;82.58
21960;BME280;11144;43.030;25.108;2024-03-08T00:32:35;99611.84;;;5.13;82.91
21960;BME280;11144;43.030;25.108;2024-03-08T00:34:09;99608.28;;;5.14;82.60
21960;BME280;11144;43.030;25.108;2024-03-08T00:35:43;99608.16;;;5.15;82.75
21960;BME280;11144;43.030;25.108;2024-03-08T00:37:18;99609.63;;;5.18;82.79
21960;BME280;11144;43.030;25.108;2024-03-08T00:38:51;99611.03;;;5.12;82.73
21960;BME280;11144;43.030;25.108;2024-03-08T00:40:24;99616.38;;;5.11;82.78
21960;BME280;11144;43.030;25.108;2024-03-08T00:41:57;99605.72;;;5.04;82.77
21960;BME280;11144;43.030;25.108;2024-03-08T00:43:30;99608.56;;;5.01;82.70
21960;BME280;11144;43.030;25.108;2024-03-08T00:45:03;99607.47;;;5.04;83.08
21960;BME280;11144;43.030;25.108;2024-03-08T00:46:36;99605.72;;;5.04;83.83
21960;BME280;11144;43.030;25.108;2024-03-08T00:48:10;99610.63;;;5.07;83.62
21960;BME280;11144;43.030;25.108;2024-03-08T00:49:43;99605.25;;;5.09;83.29
21960;BME280;11144;43.030;25.108;2024-03-08T00:51:16;99608.84;;;5.08;83.08
21960;BME280;11144;43.030;25.108;2024-03-08T00:52:50;99605.16;;;5.10;83.32
21960;BME280;11144;43.030;25.108;2024-03-08T00:54:23;99603.06;;;5.14;83.16
21960;BME280;11144;43.030;25.108;2024-03-08T00:55:56;99601.03;;;5.17;83.14
21960;BME280;11144;43.030;25.108;2024-03-08T00:57:29;99599.63;;;5.23;83.24
21960;BME280;11144;43.030;25.108;2024-03-08T00:59:02;99594.28;;;5.24;83.16
21960;BME280;11144;43.030;25.108;2024-03-08T01:00:35;99595.94;;;5.26;83.15
21960;BME280;11144;43.030;25.108;2024-03-08T01:02:10;99591.16;;;5.21;83.03
21960;BME280;11144;43.030;25.108;2024-03-08T01:03:43;99564.50;;;5.09;82.89
21960;BME280;11144;43.030;25.108;2024-03-08T01:05:16;99592.09;;;5.20;83.36
21960;BME280;11144;43.030;25.108;2024-03-08T01:06:49;99595.00;;;5.17;83.07
21960;BME280;11144;43.030;25.108;2024-03-08T01:08:24;99592.69;;;5.14;82.40
21960;BME280;11144;43.030;25.108;2024-03-08T01:09:56;99594.59;;;5.12;82.76
21960;BME280;11144;43.030;25.108;2024-03-08T01:11:30;99587.63;;;5.12;82.85
21960;BME280;11144;43.030;25.108;2024-03-08T01:13:03;99587.22;;;5.07;82.62
21960;BME280;11144;43.030;25.108;2024-03-08T01:14:37;99569.50;;;4.93;82.78
21960;BME280;11144;43.030;25.108;2024-03-08T01:16:09;99595.31;;;5.04;83.01
21960;BME280;11144;43.030;25.108;2024-03-08T01:17:47;99601.31;;;5.05;83.34
21960;BME280;11144;43.030;25.108;2024-03-08T01:19:20;99594.59;;;5.02;83.14
21960;BME280;11144;43.030;25.108;2024-03-08T01:20:53;99587.13;;;4.99;83.25
21960;BME280;11144;43.030;25.108;2024-03-08T01:22:26;99587.22;;;4.98;83.15
21960;BME280;11144;43.030;25.108;2024-03-08T01:24:01;99583.16;;;4.95;83.01
21960;BME280;11144;43.030;25.108;2024-03-08T01:25:35;99594.34;;;4.96;83.32
21960;BME280;11144;43.030;25.108;2024-03-08T01:27:08;99593.94;;;5.00;83.38
21960;BME280;11144;43.030;25.108;2024-03-08T01:28:42;99601.47;;;5.03;83.55
21960;BME280;11144;43.030;25.108;2024-03-08T01:30:15;99594.50;;;5.04;83.77
21960;BME280;11144;43.030;25.108;2024-03-08T01:31:49;99602.28;;;5.04;83.36
21960;BME280;11144;43.030;25.108;2024-03-08T01:33:25;99590.97;;;4.95;83.17
21960;BME280;11144;43.030;25.108;2024-03-08T01:34:58;99602.69;;;4.99;83.34
21960;BME280;11144;43.030;25.108;2024-03-08T01:36:31;99603.53;;;5.00;83.73
21960;BME280;11144;43.030;25.108;2024-03-08T01:38:04;99601.59;;;5.02;84.03
21960;BME280;11144;43.030;25.108;2024-03-08T01:39:39;99598.88;;;5.03;83.88
21960;BME280;11144;43.030;25.108;2024-03-08T01:41:11;99599.28;;;5.08;83.72
21960;BME280;11144;43.030;25.108;2024-03-08T01:42:46;99595.69;;;5.09;83.43
21960;BME280;11144;43.030;25.108;2024-03-08T01:44:19;99604.47;;;5.08;83.51
21960;BME280;11144;43.030;25.108;2024-03-08T01:45:54;99606.09;;;5.09;83.50
21960;BME280;11144;43.030;25.108;2024-03-08T01:47:28;99594.50;;;5.04;83.33
21960;BME280;11144;43.030;25.108;2024-03-08T01:49:01;99601.72;;;5.10;83.29
21960;BME280;11144;43.030;25.108;2024-03-08T01:50:35;99606.09;;;5.09;83.47
21960;BME280;11144;43.030;25.108;2024-03-08T01:52:08;99597.91;;;5.04;83.05
21960;BME280;11144;43.030;25.108;2024-03-08T01:53:42;99601.72;;;5.00;83.22
21960;BME280;11144;43.030;25.108;2024-03-08T01:55:19;99594.34;;;4.96;83.53
21960;BME280;11144;43.030;25.108;2024-03-08T01:56:52;99611.75;;;4.95;83.83
21960;BME280;11144;43.030;25.108;2024-03-08T01:58:27;99602.28;;;4.94;83.71
21960;BME280;11144;43.030;25.108;2024-03-08T02:00:01;99593.41;;;4.97;83.75
21960;BME280;11144;43.030;25.108;2024-03-08T02:01:37;99602.81;;;4.98;83.71
21960;BME280;11144;43.030;25.108;2024-03-08T02:03:11;99594.91;;;4.99;83.60
21960;BME280;11144;43.030;25.108;2024-03-08T02:04:44;99600.50;;;5.04;83.97
21960;BME280;11144;43.030;25.108;2024-03-08T02:06:18;99589.81;;;5.07;84.15
21960;BME280;11144;43.030;25.108;2024-03-08T02:07:50;99588.19;;;5.06;83.86
21960;BME280;11144;43.030;25.108;2024-03-08T02:09:24;99584.34;;;5.10;83.87
21960;BME280;11144;43.030;25.108;2024-03-08T02:10:58;99592.41;;;5.17;83.60
21960;BME280;11144;43.030;25.108;2024-03-08T02:12:32;99588.03;;;5.17;83.60
21960;BME280;11144;43.030;25.108;2024-03-08T02:14:05;99597.31;;;5.20;83.63
21960;BME280;11144;43.030;25.108;2024-03-08T02:15:53;99600.72;;;5.20;83.54
21960;BME280;11144;43.030;25.108;2024-03-08T02:17:26;99588.41;;;5.22;83.45
21960;BME280;11144;43.030;25.108;2024-03-08T02:18:59;99591.69;;;5.24;83.55
21960;BME280;11144;43.030;25.108;2024-03-08T02:20:34;99594.84;;;5.28;83.65
21960;BME280;11144;43.030;25.108;2024-03-08T02:22:06;99597.44;;;5.28;83.71
21960;BME280;11144;43.030;25.108;2024-03-08T02:23:41;99594.97;;;5.27;83.72
21960;BME280;11144;43.030;25.108;2024-03-08T02:25:13;99595.94;;;5.26;83.57
21960;BME280;11144;43.030;25.108;2024-03-08T02:26:47;99595.94;;;5.26;83.75
21960;BME280;11144;43.030;25.108;2024-03-08T02:28:20;99594.28;;;5.24;84.03
21960;BME280;11144;43.030;25.108;2024-03-08T02:29:55;99592.53;;;5.25;83.94
21960;BME280;11144;43.030;25.108;2024-03-08T02:31:29;99591.00;;;5.22;83.92
21960;BME280;11144;43.030;25.108;2024-03-08T02:33:03;99592.38;;;5.27;83.86
21960;BME280;11144;43.030;25.108;2024-03-08T02:34:36;99597.44;;;5.28;83.89
21960;BME280;11144;43.030;25.108;2024-03-08T02:36:10;99593.19;;;5.27;83.66
21960;BME280;11144;43.030;25.108;2024-03-08T02:37:44;99597.56;;;5.27;84.02
21960;BME280;11144;43.030;25.108;2024-03-08T02:39:19;99600.88;;;5.29;83.85
21960;BME280;11144;43.030;25.108;2024-03-08T02:40:53;99603.16;;;5.32;83.93
21960;BME280;11144;43.030;25.108;2024-03-08T02:42:26;99601.25;;;5.34;83.88
21960;BME280;11144;43.030;25.108;2024-03-08T02:43:59;99597.16;;;5.31;83.82
21960;BME280;11144;43.030;25.108;2024-03-08T02:45:32;99602.34;;;5.31;83.94
21960;BME280;11144;43.030;25.108;2024-03-08T02:47:05;99592.94;;;5.30;83.78
21960;BME280;11144;43.030;25.108;2024-03-08T02:48:39;99594.03;;;5.28;83.56
21960;BME280;11144;43.030;25.108;2024-03-08T02:50:12;99602.09;;;5.24;83.69
21960;BME280;11144;43.030;25.108;2024-03-08T02:51:49;99589.66;;;5.18;83.56
21960;BME280;11144;43.030;25.108;2024-03-08T02:53:23;99594.75;;;5.10;83.59
21960;BME280;11144;43.030;25.108;2024-03-08T02:54:56;99595.97;;;5.16;83.71
21960;BME280;11144;43.030;25.108;2024-03-08T02:56:30;99605.81;;;5.12;83.73
21960;BME280;11144;43.030;25.108;2024-03-08T02:58:02;99601.47;;;5.13;83.55
21960;BME280;11144;43.030;25.108;2024-03-08T02:59:36;99597.88;;;5.14;83.79
21960;BME280;11144;43.030;25.108;2024-03-08T03:01:12;99605.56;;;5.15;83.61
21960;BME280;11144;43.030;25.108;2024-03-08T03:02:46;99602.97;;;5.15;83.97
21960;BME280;11144;43.030;25.108;2024-03-08T03:04:18;99605.25;;;5.18;83.95
21960;BME280;11144;43.030;25.108;2024-03-08T03:05:52;99607.19;;;5.16;83.80
21960;BME280;11144;43.030;25.108;2024-03-08T03:07:29;99605.16;;;5.10;83.91
21960;BME280;11144;43.030;25.108;2024-03-08T03:09:01;99604.47;;;5.08;83.65
21960;BME280;11144;43.030;25.108;2024-03-08T03:10:38;99607.06;;;5.08;83.95
21960;BME280;11144;43.030;25.108;2024-03-08T03:12:10;99601.56;;;5.11;83.82
21960;BME280;11144;43.030;25.108;2024-03-08T03:13:44;99606.66;;;5.13;83.87
21960;BME280;11144;43.030;25.108;2024-03-08T03:15:20;99602.41;;;5.12;83.82
21960;BME280;11144;43.030;25.108;2024-03-08T03:16:58;99605.00;;;5.12;83.53
21960;BME280;11144;43.030;25.108;2024-03-08T03:18:30;99594.34;;;5.05;83.49
21960;BME280;11144;43.030;25.108;2024-03-08T03:20:06;99608.84;;;5.08;83.69
21960;BME280;11144;43.030;25.108;2024-03-08T03:21:45;99605.16;;;5.10;84.15
21960;BME280;11144;43.030;25.108;2024-03-08T03:23:20;99604.84;;;5.13;84.39
21960;BME280;11144;43.030;25.108;2024-03-08T03:24:53;99603.22;;;5.12;83.95
21960;BME280;11144;43.030;25.108;2024-03-08T03:26:26;99603.50;;;5.09;83.78
21960;BME280;11144;43.030;25.108;2024-03-08T03:27:59;99600.91;;;5.09;83.92
21960;BME280;11144;43.030;25.108;2024-03-08T03:29:32;99601.88;;;5.08;83.83
21960;BME280;11144;43.030;25.108;2024-03-08T03:31:05;99602.97;;;5.06;84.18
21960;BME280;11144;43.030;25.108;2024-03-08T03:32:41;99600.06;;;5.09;84.37
21960;BME280;11144;43.030;25.108;2024-03-08T03:34:19;99603.50;;;5.09;84.63
21960;BME280;11144;43.030;25.108;2024-03-08T03:35:52;99605.00;;;5.12;84.82
21960;BME280;11144;43.030;25.108;2024-03-08T03:37:24;99603.91;;;5.14;84.43
21960;BME280;11144;43.030;25.108;2024-03-08T03:38:59;99602.50;;;5.20;84.31
21960;BME280;11144;43.030;25.108;2024-03-08T03:40:37;99602.38;;;5.21;84.74
21960;BME280;11144;43.030;25.108;2024-03-08T03:42:12;99602.09;;;5.24;84.39
21960;BME280;11144;43.030;25.108;2024-03-08T03:43:44;99601.00;;;5.27;84.32
21960;BME280;11144;43.030;25.108;2024-03-08T03:45:18;99597.56;;;5.27;84.35
21960;BME280;11144;43.030;25.108;2024-03-08T03:46:51;99591.00;;;5.22;84.83
21960;BME280;11144;43.030;25.108;2024-03-08T03:48:25;99604.56;;;5.26;84.46
21960;BME280;11144;43.030;25.108;2024-03-08T03:49:57;99610.56;;;5.27;84.71
21960;BME280;11144;43.030;25.108;2024-03-08T03:51:33;99608.66;;;5.29;84.66
21960;BME280;11144;43.030;25.108;2024-03-08T03:53:06;99611.28;;;5.29;84.36
21960;BME280;11144;43.030;25.108;2024-03-08T03:54:43;99612.22;;;5.28;84.35
21960;BME280;11144;43.030;25.108;2024-03-08T03:56:16;99609.78;;;5.26;84.50
21960;BME280;11144;43.030;25.108;2024-03-08T03:57:49;99614.00;;;5.27;84.12
21960;BME280;11144;43.030;25.108;2024-03-08T03:59:21;99618.34;;;5.27;84.00
21960;BME280;11144;43.030;25.108;2024-03-08T04:00:56;99620.00;;;5.28;83.88
21960;BME280;11144;43.030;25.108;2024-03-08T04:02:28;99614.81;;;5.28;84.11
21960;BME280;11144;43.030;25.108;2024-03-08T04:04:02;99620.28;;;5.24;84.04
21960;BME280;11144;43.030;25.108;2024-03-08T04:05:34;99620.44;;;5.23;84.02
21960;BME280;11144;43.030;25.108;2024-03-08T04:07:08;99614.03;;;5.17;83.93
21960;BME280;11144;43.030;25.108;2024-03-08T04:08:42;99622.22;;;5.22;84.20
21960;BME280;11144;43.030;25.108;2024-03-08T04:10:17;99624.81;;;5.22;84.32
21960;BME280;11144;43.030;25.108;2024-03-08T04:11:50;99620.84;;;5.18;84.35
21960;BME280;11144;43.030;25.108;2024-03-08T04:13:25;99630.97;;;5.21;84.27
21960;BME280;11144;43.030;25.108;2024-03-08T04:14:58;99632.91;;;5.19;83.96
21960;BME280;11144;43.030;25.108;2024-03-08T04:16:32;99639.19;;;5.17;83.91
21960;BME280;11144;43.030;25.108;2024-03-08T04:18:04;99632.75;;;5.11;83.99
21960;BME280;11144;43.030;25.108;2024-03-08T04:19:38;99635.34;;;5.11;84.22
21960;BME280;11144;43.030;25.108;2024-03-08T04:21:11;99637.28;;;5.09;84.37
21960;BME280;11144;43.030;25.108;2024-03-08T04:22:44;99649.31;;;5.10;84.50
21960;BME280;11144;43.030;25.108;2024-03-08T04:24:19;99640.56;;;5.11;84.54
21960;BME280;11144;43.030;25.108;2024-03-08T04:25:53;99637.94;;;5.11;84.32
21960;BME280;11144;43.030;25.108;2024-03-08T04:27:26;99639.19;;;5.07;84.14
21960;BME280;11144;43.030;25.108;2024-03-08T04:28:59;99638.94;;;5.10;84.20
21960;BME280;11144;43.030;25.108;2024-03-08T04:30:32;99636.59;;;5.07;84.05
21960;BME280;11144;43.030;25.108;2024-03-08T04:32:06;99641.94;;;5.06;84.03
21960;BME280;11144;43.030;25.108;2024-03-08T04:33:38;99650.69;;;5.05;83.96
21960;BME280;11144;43.030;25.108;2024-03-08T04:35:12;99646.56;;;5.02;83.94
21960;BME280;11144;43.030;25.108;2024-03-08T04:36:45;99639.63;;;4.93;84.32
21960;BME280;11144;43.030;25.108;2024-03-08T04:38:18;99652.63;;;4.93;84.05
21960;BME280;11144;43.030;25.108;2024-03-08T04:39:51;99651.63;;;4.85;84.08
21960;BME280;11144;43.030;25.108;2024-03-08T04:41:25;99649.34;;;4.82;84.15
21960;BME280;11144;43.030;25.108;2024-03-08T04:42:59;99648.50;;;4.81;84.34
21960;BME280;11144;43.030;25.108;2024-03-08T04:44:31;99653.28;;;4.76;84.27
21960;BME280;11144;43.030;25.108;2024-03-08T04:46:05;99648.09;;;4.76;84.47
21960;BME280;11144;43.030;25.108;2024-03-08T04:47:38;99653.69;;;4.72;84.61
21960;BME280;11144;43.030;25.108;2024-03-08T04:49:11;99651.78;;;4.74;84.44
21960;BME280;11144;43.030;25.108;2024-03-08T04:50:43;99653.69;;;4.72;84.28
21960;BME280;11144;43.030;25.108;2024-03-08T04:52:17;99663.41;;;4.70;84.18
21960;BME280;11144;43.030;25.108;2024-03-08T04:53:49;99650.00;;;4.65;84.34
21960;BME280;11144;43.030;25.108;2024-03-08T04:55:23;99672.97;;;4.69;84.47
21960;BME280;11144;43.030;25.108;2024-03-08T04:56:58;99675.28;;;4.72;84.74
21960;BME280;11144;43.030;25.108;2024-03-08T04:58:32;99673.38;;;4.74;85.06
21960;BME280;11144;43.030;25.108;2024-03-08T05:00:07;99678.31;;;4.77;84.71
21960;BME280;11144;43.030;25.108;2024-03-08T05:01:43;99679.00;;;4.79;84.63
21960;BME280;11144;43.030;25.108;2024-03-08T05:03:16;99679.69;;;4.81;84.59
21960;BME280;11144;43.030;25.108;2024-03-08T05:04:50;99674.75;;;4.78;84.17
21960;BME280;11144;43.030;25.108;2024-03-08T05:06:22;99670.09;;;4.72;84.06
21960;BME280;11144;43.030;25.108;2024-03-08T05:07:56;99685.03;;;4.80;84.36
21960;BME280;11144;43.030;25.108;2024-03-08T05:09:28;99679.94;;;4.78;84.15
21960;BME280;11144;43.030;25.108;2024-03-08T05:11:04;99686.38;;;4.74;84.38
21960;BME280;11144;43.030;25.108;2024-03-08T05:12:40;99665.72;;;4.63;84.64
21960;BME280;11144;43.030;25.108;2024-03-08T05:14:14;99689.53;;;4.78;84.51
21960;BME280;11144;43.030;25.108;2024-03-08T05:15:49;99694.72;;;4.78;84.26
21960;BME280;11144;43.030;25.108;2024-03-08T05:17:23;99692.25;;;4.76;84.51
21960;BME280;11144;43.030;25.108;2024-03-08T05:18:56;99691.41;;;4.76;84.43
21960;BME280;11144;43.030;25.108;2024-03-08T05:20:30;99693.47;;;4.72;84.53
21960;BME280;11144;43.030;25.108;2024-03-08T05:22:03;99704.84;;;4.71;84.42
21960;BME280;11144;43.030;25.108;2024-03-08T05:23:36;99699.91;;;4.68;84.42
21960;BME280;11144;43.030;25.108;2024-03-08T05:25:10;99707.44;;;4.71;84.70
21960;BME280;11144;43.030;25.108;2024-03-08T05:26:45;99709.19;;;4.71;84.38
21960;BME280;11144;43.030;25.108;2024-03-08T05:28:19;99709.31;;;4.69;84.23
21960;BME280;11144;43.030;25.108;2024-03-08T05:29:53;99708.91;;;4.64;84.32
21960;BME280;11144;43.030;25.108;2024-03-08T05:31:31;99710.84;;;4.62;84.19
21960;BME280;11144;43.030;25.108;2024-03-08T05:33:10;99716.97;;;4.61;84.42
21960;BME280;11144;43.030;25.108;2024-03-08T05:34:46;99721.22;;;4.62;84.44
21960;BME280;11144;43.030;25.108;2024-03-08T05:36:19;99729.69;;;4.64;84.49
21960;BME280;11144;43.030;25.108;2024-03-08T05:37:52;99725.44;;;4.63;84.65
21960;BME280;11144;43.030;25.108;2024-03-08T05:39:25;99721.47;;;4.59;84.35
21960;BME280;11144;43.030;25.108;2024-03-08T05:40:57;99726.81;;;4.67;84.38
21960;BME280;11144;43.030;25.108;2024-03-08T05:42:31;99733.50;;;4.70;84.32
21960;BME280;11144;43.030;25.108;2024-03-08T05:44:05;99730.81;;;4.71;84.24
21960;BME280;11144;43.030;25.108;2024-03-08T05:45:38;99729.16;;;4.70;84.41
21960;BME280;11144;43.030;25.108;2024-03-08T05:47:12;99732.97;;;4.66;84.62
21960;BME280;11144;43.030;25.108;2024-03-08T05:48:44;99736.00;;;4.71;84.27
21960;BME280;11144;43.030;25.108;2024-03-08T05:50:18;99742.00;;;4.72;84.27
21960;BME280;11144;43.030;25.108;2024-03-08T05:51:51;99741.88;;;4.73;84.08
21960;BME280;11144;43.030;25.108;2024-03-08T05:53:26;99750.59;;;4.72;84.03
21960;BME280;11144;43.030;25.108;2024-03-08T05:54:58;99749.66;;;4.73;84.04
21960;BME280;11144;43.030;25.108;2024-03-08T05:56:32;99754.03;;;4.73;83.96
21960;BME280;11144;43.030;25.108;2024-03-08T05:58:05;99753.19;;;4.72;83.90
21960;BME280;11144;43.030;25.108;2024-03-08T05:59:41;99752.38;;;4.72;84.05
21960;BME280;11144;43.030;25.108;2024-03-08T06:01:14;99756.78;;;4.71;84.08
21960;BME280;11144;43.030;25.108;2024-03-08T06:02:48;99745.41;;;4.72;84.00
21960;BME280;11144;43.030;25.108;2024-03-08T06:04:20;99748.25;;;4.69;84.25
21960;BME280;11144;43.030;25.108;2024-03-08T06:05:54;99760.06;;;4.73;84.18
21960;BME280;11144;43.030;25.108;2024-03-08T06:07:28;99760.16;;;4.72;84.12
21960;BME280;11144;43.030;25.108;2024-03-08T06:09:02;99760.16;;;4.72;83.90
21960;BME280;11144;43.030;25.108;2024-03-08T06:10:41;99762.66;;;4.73;83.82
21960;BME280;11144;43.030;25.108;2024-03-08T06:12:15;99767.84;;;4.73;83.90
21960;BME280;11144;43.030;25.108;2024-03-08T06:13:50;99768.78;;;4.72;83.82
21960;BME280;11144;43.030;25.108;2024-03-08T06:15:25;99762.22;;;4.68;84.08
21960;BME280;11144;43.030;25.108;2024-03-08T06:16:58;99770.00;;;4.68;84.02
21960;BME280;11144;43.030;25.108;2024-03-08T06:18:32;99774.81;;;4.73;83.98
21960;BME280;11144;43.030;25.108;2024-03-08T06:20:05;99773.16;;;4.72;83.79
21960;BME280;11144;43.030;25.108;2024-03-08T06:21:42;99781.91;;;4.71;83.67
21960;BME280;11144;43.030;25.108;2024-03-08T06:23:16;99778.50;;;4.70;83.74
21960;BME280;11144;43.030;25.108;2024-03-08T06:24:50;99778.63;;;4.69;83.57
21960;BME280;11144;43.030;25.108;2024-03-08T06:26:23;99784.38;;;4.72;83.76
21960;BME280;11144;43.030;25.108;2024-03-08T06:27:59;99784.13;;;4.75;83.81
21960;BME280;11144;43.030;25.108;2024-03-08T06:29:32;99774.13;;;4.71;83.85
21960;BME280;11144;43.030;25.108;2024-03-08T06:31:07;99788.22;;;4.78;83.74
21960;BME280;11144;43.030;25.108;2024-03-08T06:32:39;99785.63;;;4.78;83.59
21960;BME280;11144;43.030;25.108;2024-03-08T06:34:15;99777.41;;;4.73;83.50
21960;BME280;11144;43.030;25.108;2024-03-08T06:35:50;99777.38;;;4.63;83.40
21960;BME280;11144;43.030;25.108;2024-03-08T06:37:22;99789.13;;;4.67;83.51
21960;BME280;11144;43.030;25.108;2024-03-08T06:38:56;99781.63;;;4.64;83.44
21960;BME280;11144;43.030;25.108;2024-03-08T06:40:29;99792.81;;;4.65;83.40
21960;BME280;11144;43.030;25.108;2024-03-08T06:42:03;99781.19;;;4.59;83.84
21960;BME280;11144;43.030;25.108;2024-03-08T06:43:37;99786.53;;;4.67;83.77
21960;BME280;11144;43.030;25.108;2024-03-08T06:45:11;99797.75;;;4.68;83.35
21960;BME280;11144;43.030;25.108;2024-03-08T06:46:46;99788.44;;;4.65;83.13
21960;BME280;11144;43.030;25.108;2024-03-08T06:48:20;99789.97;;;4.68;83.43
21960;BME280;11144;43.030;25.108;2024-03-08T06:49:52;99795.00;;;4.69;83.48
21960;BME280;11144;43.030;25.108;2024-03-08T06:51:25;99772.56;;;4.49;82.48
21960;BME280;11144;43.030;25.108;2024-03-08T06:52:58;99801.53;;;4.54;82.85
21960;BME280;11144;43.030;25.108;2024-03-08T06:54:31;99801.81;;;4.51;83.06
21960;BME280;11144;43.030;25.108;2024-03-08T06:56:04;99798.25;;;4.52;83.14
21960;BME280;11144;43.030;25.108;2024-03-08T06:57:37;99800.00;;;4.52;82.86
21960;BME280;11144;43.030;25.108;2024-03-08T06:59:10;99813.13;;;4.50;82.76
21960;BME280;11144;43.030;25.108;2024-03-08T07:00:45;99809.84;;;4.48;82.75
21960;BME280;11144;43.030;25.108;2024-03-08T07:02:18;99816.16;;;4.55;82.84
21960;BME280;11144;43.030;25.108;2024-03-08T07:03:56;99811.66;;;4.57;83.03
21960;BME280;11144;43.030;25.108;2024-03-08T07:05:29;99816.59;;;4.60;83.02
21960;BME280;11144;43.030;25.108;2024-03-08T07:07:03;99818.78;;;4.65;83.02
21960;BME280;11144;43.030;25.108;2024-03-08T07:08:35;99816.06;;;4.66;82.81
21960;BME280;11144;43.030;25.108;2024-03-08T07:10:09;99819.88;;;4.62;82.25
21960;BME280;11144;43.030;25.108;2024-03-08T07:11:43;99824.41;;;4.60;82.65
21960;BME280;11144;43.030;25.108;2024-03-08T07:13:16;99825.88;;;4.63;82.41
21960;BME280;11144;43.030;25.108;2024-03-08T07:14:49;99821.38;;;4.65;82.75
21960;BME280;11144;43.030;25.108;2024-03-08T07:16:22;99830.00;;;4.65;82.80
21960;BME280;11144;43.030;25.108;2024-03-08T07:17:57;99815.09;;;4.67;82.81
21960;BME280;11144;43.030;25.108;2024-03-08T07:19:31;99823.06;;;4.75;83.00
21960;BME280;11144;43.030;25.108;2024-03-08T07:21:04;99823.06;;;4.75;83.19
21960;BME280;11144;43.030;25.108;2024-03-08T07:22:37;99829.78;;;4.78;82.76
21960;BME280;11144;43.030;25.108;2024-03-08T07:24:10;99827.72;;;4.81;82.91
21960;BME280;11144;43.030;25.108;2024-03-08T07:25:59;99828.28;;;4.85;82.87
21960;BME280;11144;43.030;25.108;2024-03-08T07:27:33;99825.13;;;4.81;82.90
21960;BME280;11144;43.030;25.108;2024-03-08T07:29:08;99833.66;;;4.93;82.67
21960;BME280;11144;43.030;25.108;2024-03-08T07:30:40;99832.69;;;4.94;82.51
21960;BME280;11144;43.030;25.108;2024-03-08T07:32:34;99838.28;;;4.89;81.90
21960;BME280;11144;43.030;25.108;2024-03-08T07:34:08;99838.56;;;4.86;81.90
21960;BME280;11144;43.030;25.108;2024-03-08T07:35:42;99840.19;;;4.87;82.57
21960;BME280;11144;43.030;25.108;2024-03-08T07:37:16;99837.72;;;4.86;81.88
21960;BME280;11144;43.030;25.108;2024-03-08T07:38:51;99845.91;;;4.81;81.70
21960;BME280;11144;43.030;25.108;2024-03-08T07:40:23;99850.41;;;4.79;82.15
21960;BME280;11144;43.030;25.108;2024-03-08T07:41:56;99845.63;;;4.75;81.48
21960;BME280;11144;43.030;25.108;2024-03-08T07:43:29;99842.63;;;4.79;82.47
21960;BME280;11144;43.030;25.108;2024-03-08T07:45:06;99841.66;;;4.80;82.31
21960;BME280;11144;43.030;25.108;2024-03-08T07:46:40;99843.56;;;4.78;82.33
21960;BME280;11144;43.030;25.108;2024-03-08T07:48:13;99850.03;;;4.84;82.41
21960;BME280;11144;43.030;25.108;2024-03-08T07:49:48;99852.22;;;4.88;82.27
21960;BME280;11144;43.030;25.108;2024-03-08T07:51:20;99857.13;;;4.82;81.46
21960;BME280;11144;43.030;25.108;2024-03-08T07:52:53;99846.44;;;4.75;81.79
21960;BME280;11144;43.030;25.108;2024-03-08T07:54:26;99854.06;;;4.67;81.99
21960;BME280;11144;43.030;25.108;2024-03-08T07:56:00;99846.25;;;4.58;81.87
21960;BME280;11144;43.030;25.108;2024-03-08T07:57:32;99853.25;;;4.67;82.27
21960;BME280;11144;43.030;25.108;2024-03-08T07:59:06;99855.72;;;4.68;82.04
21960;BME280;11144;43.030;25.108;2024-03-08T08:00:39;99854.75;;;4.69;82.11
21960;BME280;11144;43.030;25.108;2024-03-08T08:02:15;99855.09;;;4.55;81.55
21960;BME280;11144;43.030;25.108;2024-03-08T08:03:47;99862.63;;;4.58;81.17
21960;BME280;11144;43.030;25.108;2024-03-08T08:05:23;99858.16;;;4.60;82.09
21960;BME280;11144;43.030;25.108;2024-03-08T08:06:57;99855.13;;;4.65;81.93
21960;BME280;11144;43.030;25.108;2024-03-08T08:08:30;99856.25;;;4.62;81.69
21960;BME280;11144;43.030;25.108;2024-03-08T08:10:05;99861.16;;;4.65;81.73
21960;BME280;11144;43.030;25.108;2024-03-08T08:11:38;99852.69;;;4.63;81.88
21960;BME280;11144;43.030;25.108;2024-03-08T08:13:12;99868.00;;;4.66;81.65
21960;BME280;11144;43.030;25.108;2024-03-08T08:14:45;99864.97;;;4.61;81.66
21960;BME280;11144;43.030;25.108;2024-03-08T08:16:18;99874.41;;;4.62;81.85
21960;BME280;11144;43.030;25.108;2024-03-08T08:17:51;99873.31;;;4.65;82.01